sensor_id;sensor_type;location;lat;lon;timestamp;P1;durP1;ratioP1;P2;durP2;ratioP2
79261;SDS011;68699;48.220;16.358;2023-07-13T00:01:46;2.53;;;2.10;;
79261;SDS011;68699;48.220;16.358;2023-07-13T00:04:17;5.73;;;2.30;;
79261;SDS011;68699;48.220;16.358;2023-07-13T00:06:44;4.10;;;2.07;;
79261;SDS011;68699;48.220;16.358;2023-07-13T00:09:13;2.50;;;1.80;;
79261;SDS011;68699;48.220;16.358;2023-07-13T00:11:40;1.93;;;1.70;;
79261;SDS011;68699;48.220;16.358;2023-07-13T00:14:06;1.90;;;1.80;;
79261;SDS011;68699;48.220;16.358;2023-07-13T00:16:33;2.43;;;1.80;;
79261;SDS011;68699;48.220;16.358;2023-07-13T00:18:59;4.07;;;1.70;;
79261;SDS011;68699;48.220;16.358;2023-07-13T00:21:26;2.77;;;1.93;;
79261;SDS011;68699;48.220;16.358;2023-07-13T00:23:52;2.13;;;2.03;;
79261;SDS011;68699;48.220;16.358;2023-07-13T00:26:18;3.07;;;2.17;;
79261;SDS011;68699;48.220;16.358;2023-07-13T00:28:44;2.23;;;2.00;;
79261;SDS011;68699;48.220;16.358;2023-07-13T00:31:10;2.10;;;1.77;;
79261;SDS011;68699;48.220;16.358;2023-07-13T00:33:37;2.50;;;1.93;;
79261;SDS011;68699;48.220;16.358;2023-07-13T00:36:03;2.37;;;1.90;;
79261;SDS011;68699;48.220;16.358;2023-07-13T00:38:30;1.70;;;1.60;;
79261;SDS011;68699;48.220;16.358;2023-07-13T00:40:56;1.93;;;1.67;;
79261;SDS011;68699;48.220;16.358;2023-07-13T00:43:23;1.60;;;1.50;;
79261;SDS011;68699;48.220;16.358;2023-07-13T00:48:21;1.73;;;1.50;;
79261;SDS011;68699;48.220;16.358;2023-07-13T00:50:51;3.37;;;1.60;;
79261;SDS011;68699;48.220;16.358;2023-07-13T00:53:18;1.80;;;1.50;;
79261;SDS011;68699;48.220;16.358;2023-07-13T00:55:44;1.67;;;1.57;;
79261;SDS011;68699;48.220;16.358;2023-07-13T00:58:10;2.07;;;1.60;;
79261;SDS011;68699;48.220;16.358;2023-07-13T01:00:37;2.40;;;1.50;;
79261;SDS011;68699;48.220;16.358;2023-07-13T01:03:03;1.67;;;1.50;;
79261;SDS011;68699;48.220;16.358;2023-07-13T01:05:30;2.03;;;1.53;;
79261;SDS011;68699;48.220;16.358;2023-07-13T01:07:57;2.30;;;1.60;;
79261;SDS011;68699;48.220;16.358;2023-07-13T01:10:33;1.70;;;1.60;;
79261;SDS011;68699;48.220;16.358;2023-07-13T01:13:03;3.53;;;1.87;;
79261;SDS011;68699;48.220;16.358;2023-07-13T01:17:58;1.60;;;1.50;;
79261;SDS011;68699;48.220;16.358;2023-07-13T01:20:24;1.40;;;1.30;;
79261;SDS011;68699;48.220;16.358;2023-07-13T01:22:50;1.83;;;1.43;;
79261;SDS011;68699;48.220;16.358;2023-07-13T01:25:17;1.50;;;1.40;;
79261;SDS011;68699;48.220;16.358;2023-07-13T01:27:43;1.30;;;1.20;;
79261;SDS011;68699;48.220;16.358;2023-07-13T01:30:10;1.47;;;1.37;;
79261;SDS011;68699;48.220;16.358;2023-07-13T01:32:36;1.73;;;1.30;;
79261;SDS011;68699;48.220;16.358;2023-07-13T01:35:02;1.53;;;1.40;;
79261;SDS011;68699;48.220;16.358;2023-07-13T01:37:28;1.60;;;1.50;;
79261;SDS011;68699;48.220;16.358;2023-07-13T01:39:58;2.20;;;1.40;;
79261;SDS011;68699;48.220;16.358;2023-07-13T01:42:25;1.30;;;1.30;;
79261;SDS011;68699;48.220;16.358;2023-07-13T01:44:51;1.90;;;1.10;;
79261;SDS011;68699;48.220;16.358;2023-07-13T01:47:16;1.57;;;1.50;;
79261;SDS011;68699;48.220;16.358;2023-07-13T01:49:42;1.50;;;1.40;;
79261;SDS011;68699;48.220;16.358;2023-07-13T01:52:10;1.40;;;1.30;;
79261;SDS011;68699;48.220;16.358;2023-07-13T01:54:36;1.73;;;1.40;;
79261;SDS011;68699;48.220;16.358;2023-07-13T01:57:02;1.50;;;1.40;;
79261;SDS011;68699;48.220;16.358;2023-07-13T01:59:29;1.63;;;1.50;;
79261;SDS011;68699;48.220;16.358;2023-07-13T02:01:55;1.60;;;1.50;;
79261;SDS011;68699;48.220;16.358;2023-07-13T02:04:21;1.73;;;1.63;;
79261;SDS011;68699;48.220;16.358;2023-07-13T02:06:47;1.57;;;1.20;;
79261;SDS011;68699;48.220;16.358;2023-07-13T02:09:13;1.57;;;1.43;;
79261;SDS011;68699;48.220;16.358;2023-07-13T02:11:39;1.83;;;1.47;;
79261;SDS011;68699;48.220;16.358;2023-07-13T02:14:05;1.93;;;1.50;;
79261;SDS011;68699;48.220;16.358;2023-07-13T02:16:34;2.13;;;1.40;;
79261;SDS011;68699;48.220;16.358;2023-07-13T02:19:00;3.13;;;1.60;;
79261;SDS011;68699;48.220;16.358;2023-07-13T02:21:26;2.33;;;1.50;;
79261;SDS011;68699;48.220;16.358;2023-07-13T02:23:52;1.52;;;1.40;;
79261;SDS011;68699;48.220;16.358;2023-07-13T02:26:19;1.57;;;1.47;;
79261;SDS011;68699;48.220;16.358;2023-07-13T02:28:45;3.13;;;1.60;;
79261;SDS011;68699;48.220;16.358;2023-07-13T02:31:12;1.83;;;1.63;;
79261;SDS011;68699;48.220;16.358;2023-07-13T02:33:38;1.75;;;1.63;;
79261;SDS011;68699;48.220;16.358;2023-07-13T02:36:04;1.67;;;1.50;;
79261;SDS011;68699;48.220;16.358;2023-07-13T02:38:31;1.77;;;1.50;;
79261;SDS011;68699;48.220;16.358;2023-07-13T02:40:59;1.70;;;1.60;;
79261;SDS011;68699;48.220;16.358;2023-07-13T02:43:25;1.98;;;1.77;;
79261;SDS011;68699;48.220;16.358;2023-07-13T02:45:51;1.63;;;1.52;;
79261;SDS011;68699;48.220;16.358;2023-07-13T02:48:17;2.10;;;1.63;;
79261;SDS011;68699;48.220;16.358;2023-07-13T02:50:43;2.27;;;2.07;;
79261;SDS011;68699;48.220;16.358;2023-07-13T02:53:10;2.55;;;1.50;;
79261;SDS011;68699;48.220;16.358;2023-07-13T02:55:36;1.80;;;1.70;;
79261;SDS011;68699;48.220;16.358;2023-07-13T02:58:02;1.60;;;1.50;;
79261;SDS011;68699;48.220;16.358;2023-07-13T03:00:28;1.83;;;1.73;;
79261;SDS011;68699;48.220;16.358;2023-07-13T03:02:54;2.03;;;1.83;;
79261;SDS011;68699;48.220;16.358;2023-07-13T03:05:22;2.20;;;1.77;;
79261;SDS011;68699;48.220;16.358;2023-07-13T03:07:49;1.67;;;1.57;;
79261;SDS011;68699;48.220;16.358;2023-07-13T03:10:15;2.37;;;2.00;;
79261;SDS011;68699;48.220;16.358;2023-07-13T03:12:41;2.45;;;1.90;;
79261;SDS011;68699;48.220;16.358;2023-07-13T03:15:07;2.03;;;1.83;;
79261;SDS011;68699;48.220;16.358;2023-07-13T03:17:33;2.40;;;1.80;;
79261;SDS011;68699;48.220;16.358;2023-07-13T03:19:59;1.90;;;1.70;;
79261;SDS011;68699;48.220;16.358;2023-07-13T03:22:25;2.63;;;1.90;;
79261;SDS011;68699;48.220;16.358;2023-07-13T03:24:51;2.47;;;1.60;;
79261;SDS011;68699;48.220;16.358;2023-07-13T03:27:17;1.83;;;1.70;;
79261;SDS011;68699;48.220;16.358;2023-07-13T03:29:43;2.40;;;1.90;;
79261;SDS011;68699;48.220;16.358;2023-07-13T03:32:10;1.70;;;1.60;;
79261;SDS011;68699;48.220;16.358;2023-07-13T03:34:36;1.60;;;1.50;;
79261;SDS011;68699;48.220;16.358;2023-07-13T03:37:02;1.87;;;1.63;;
79261;SDS011;68699;48.220;16.358;2023-07-13T03:39:28;2.07;;;1.77;;
79261;SDS011;68699;48.220;16.358;2023-07-13T03:41:54;1.80;;;1.67;;
79261;SDS011;68699;48.220;16.358;2023-07-13T03:44:20;2.53;;;1.87;;
79261;SDS011;68699;48.220;16.358;2023-07-13T03:46:46;1.90;;;1.60;;
79261;SDS011;68699;48.220;16.358;2023-07-13T03:49:12;1.73;;;1.50;;
79261;SDS011;68699;48.220;16.358;2023-07-13T03:51:38;1.93;;;1.83;;
79261;SDS011;68699;48.220;16.358;2023-07-13T03:54:04;2.37;;;1.60;;
79261;SDS011;68699;48.220;16.358;2023-07-13T03:56:31;2.40;;;2.00;;
79261;SDS011;68699;48.220;16.358;2023-07-13T03:58:58;1.70;;;1.60;;
79261;SDS011;68699;48.220;16.358;2023-07-13T04:01:24;2.80;;;1.53;;
79261;SDS011;68699;48.220;16.358;2023-07-13T04:03:50;2.00;;;1.80;;
79261;SDS011;68699;48.220;16.358;2023-07-13T04:06:18;1.87;;;1.70;;
79261;SDS011;68699;48.220;16.358;2023-07-13T04:08:51;2.83;;;2.00;;
79261;SDS011;68699;48.220;16.358;2023-07-13T04:11:21;2.27;;;1.63;;
79261;SDS011;68699;48.220;16.358;2023-07-13T04:13:47;2.67;;;1.90;;
79261;SDS011;68699;48.220;16.358;2023-07-13T04:16:14;2.13;;;1.90;;
79261;SDS011;68699;48.220;16.358;2023-07-13T04:18:40;2.63;;;1.80;;
79261;SDS011;68699;48.220;16.358;2023-07-13T04:21:07;3.23;;;1.90;;
79261;SDS011;68699;48.220;16.358;2023-07-13T04:23:34;3.57;;;1.83;;
79261;SDS011;68699;48.220;16.358;2023-07-13T04:26:00;2.80;;;1.87;;
79261;SDS011;68699;48.220;16.358;2023-07-13T04:28:26;2.73;;;2.10;;
79261;SDS011;68699;48.220;16.358;2023-07-13T04:30:52;2.37;;;2.13;;
79261;SDS011;68699;48.220;16.358;2023-07-13T04:33:18;2.67;;;2.00;;
79261;SDS011;68699;48.220;16.358;2023-07-13T04:35:48;2.80;;;1.90;;
79261;SDS011;68699;48.220;16.358;2023-07-13T04:38:14;2.13;;;1.93;;
79261;SDS011;68699;48.220;16.358;2023-07-13T04:40:42;2.10;;;2.00;;
79261;SDS011;68699;48.220;16.358;2023-07-13T04:43:10;2.00;;;1.83;;
79261;SDS011;68699;48.220;16.358;2023-07-13T04:45:36;2.00;;;1.90;;
79261;SDS011;68699;48.220;16.358;2023-07-13T04:48:02;2.53;;;1.73;;
79261;SDS011;68699;48.220;16.358;2023-07-13T04:50:28;2.20;;;2.00;;
79261;SDS011;68699;48.220;16.358;2023-07-13T04:52:54;2.67;;;1.93;;
79261;SDS011;68699;48.220;16.358;2023-07-13T04:55:20;1.87;;;1.70;;
79261;SDS011;68699;48.220;16.358;2023-07-13T04:57:47;3.33;;;2.20;;
79261;SDS011;68699;48.220;16.358;2023-07-13T05:00:13;1.70;;;1.60;;
79261;SDS011;68699;48.220;16.358;2023-07-13T05:02:42;3.17;;;1.93;;
79261;SDS011;68699;48.220;16.358;2023-07-13T05:05:09;2.20;;;2.00;;
79261;SDS011;68699;48.220;16.358;2023-07-13T05:07:35;2.63;;;2.00;;
79261;SDS011;68699;48.220;16.358;2023-07-13T05:10:01;2.33;;;2.10;;
79261;SDS011;68699;48.220;16.358;2023-07-13T05:12:28;1.90;;;1.80;;
79261;SDS011;68699;48.220;16.358;2023-07-13T05:14:54;2.97;;;2.00;;
79261;SDS011;68699;48.220;16.358;2023-07-13T05:17:20;2.70;;;1.70;;
79261;SDS011;68699;48.220;16.358;2023-07-13T05:19:47;2.87;;;1.80;;
79261;SDS011;68699;48.220;16.358;2023-07-13T05:22:12;3.20;;;1.80;;
79261;SDS011;68699;48.220;16.358;2023-07-13T05:24:38;2.90;;;1.97;;
79261;SDS011;68699;48.220;16.358;2023-07-13T05:27:05;2.87;;;2.07;;
79261;SDS011;68699;48.220;16.358;2023-07-13T05:29:31;2.57;;;1.90;;
79261;SDS011;68699;48.220;16.358;2023-07-13T05:31:57;2.77;;;1.50;;
79261;SDS011;68699;48.220;16.358;2023-07-13T05:34:23;1.70;;;1.60;;
79261;SDS011;68699;48.220;16.358;2023-07-13T05:36:49;1.83;;;1.70;;
79261;SDS011;68699;48.220;16.358;2023-07-13T05:39:15;1.40;;;1.30;;
79261;SDS011;68699;48.220;16.358;2023-07-13T05:41:41;1.33;;;1.30;;
79261;SDS011;68699;48.220;16.358;2023-07-13T05:44:07;2.93;;;1.70;;
79261;SDS011;68699;48.220;16.358;2023-07-13T05:46:33;1.10;;;1.10;;
79261;SDS011;68699;48.220;16.358;2023-07-13T05:48:59;1.30;;;1.20;;
79261;SDS011;68699;48.220;16.358;2023-07-13T05:51:25;2.00;;;1.30;;
79261;SDS011;68699;48.220;16.358;2023-07-13T05:53:52;2.10;;;1.40;;
79261;SDS011;68699;48.220;16.358;2023-07-13T05:56:18;2.60;;;1.30;;
79261;SDS011;68699;48.220;16.358;2023-07-13T05:58:44;1.90;;;1.60;;
79261;SDS011;68699;48.220;16.358;2023-07-13T06:01:11;1.70;;;1.60;;
79261;SDS011;68699;48.220;16.358;2023-07-13T06:03:37;1.57;;;1.47;;
79261;SDS011;68699;48.220;16.358;2023-07-13T06:06:07;1.83;;;1.47;;
79261;SDS011;68699;48.220;16.358;2023-07-13T06:08:33;1.60;;;1.50;;
79261;SDS011;68699;48.220;16.358;2023-07-13T06:11:03;1.97;;;1.60;;
79261;SDS011;68699;48.220;16.358;2023-07-13T06:13:29;1.53;;;1.30;;
79261;SDS011;68699;48.220;16.358;2023-07-13T06:15:55;1.40;;;1.30;;
79261;SDS011;68699;48.220;16.358;2023-07-13T06:18:21;2.10;;;1.30;;
79261;SDS011;68699;48.220;16.358;2023-07-13T06:20:47;1.47;;;1.37;;
79261;SDS011;68699;48.220;16.358;2023-07-13T06:23:13;3.67;;;1.60;;
79261;SDS011;68699;48.220;16.358;2023-07-13T06:25:39;3.57;;;2.00;;
79261;SDS011;68699;48.220;16.358;2023-07-13T06:28:05;4.50;;;1.70;;
79261;SDS011;68699;48.220;16.358;2023-07-13T06:30:31;3.60;;;1.77;;
79261;SDS011;68699;48.220;16.358;2023-07-13T06:32:57;5.60;;;2.10;;
79261;SDS011;68699;48.220;16.358;2023-07-13T06:35:23;1.53;;;1.40;;
79261;SDS011;68699;48.220;16.358;2023-07-13T06:37:50;2.27;;;1.60;;
79261;SDS011;68699;48.220;16.358;2023-07-13T06:40:16;2.63;;;1.60;;
79261;SDS011;68699;48.220;16.358;2023-07-13T06:42:42;5.40;;;1.73;;
79261;SDS011;68699;48.220;16.358;2023-07-13T06:45:08;2.10;;;1.60;;
79261;SDS011;68699;48.220;16.358;2023-07-13T06:47:34;1.63;;;1.40;;
79261;SDS011;68699;48.220;16.358;2023-07-13T06:50:00;2.43;;;1.70;;
79261;SDS011;68699;48.220;16.358;2023-07-13T06:52:26;1.80;;;1.40;;
79261;SDS011;68699;48.220;16.358;2023-07-13T06:54:52;2.37;;;1.80;;
79261;SDS011;68699;48.220;16.358;2023-07-13T06:57:18;1.63;;;1.53;;
79261;SDS011;68699;48.220;16.358;2023-07-13T06:59:44;2.73;;;1.60;;
79261;SDS011;68699;48.220;16.358;2023-07-13T07:02:10;1.93;;;1.60;;
79261;SDS011;68699;48.220;16.358;2023-07-13T07:04:36;3.00;;;1.60;;
79261;SDS011;68699;48.220;16.358;2023-07-13T07:07:03;1.40;;;1.30;;
79261;SDS011;68699;48.220;16.358;2023-07-13T07:09:29;1.83;;;1.73;;
79261;SDS011;68699;48.220;16.358;2023-07-13T07:11:56;1.67;;;1.57;;
79261;SDS011;68699;48.220;16.358;2023-07-13T07:14:22;2.53;;;1.50;;
79261;SDS011;68699;48.220;16.358;2023-07-13T07:16:49;2.03;;;1.50;;
79261;SDS011;68699;48.220;16.358;2023-07-13T07:19:15;1.40;;;1.30;;
79261;SDS011;68699;48.220;16.358;2023-07-13T07:21:41;1.30;;;1.20;;
79261;SDS011;68699;48.220;16.358;2023-07-13T07:24:07;1.77;;;1.67;;
79261;SDS011;68699;48.220;16.358;2023-07-13T07:26:33;2.27;;;1.20;;
79261;SDS011;68699;48.220;16.358;2023-07-13T07:28:59;1.83;;;1.30;;
79261;SDS011;68699;48.220;16.358;2023-07-13T07:31:25;1.20;;;1.17;;
79261;SDS011;68699;48.220;16.358;2023-07-13T07:33:51;2.53;;;1.30;;
79261;SDS011;68699;48.220;16.358;2023-07-13T07:36:18;1.33;;;1.20;;
79261;SDS011;68699;48.220;16.358;2023-07-13T07:38:44;1.43;;;1.33;;
79261;SDS011;68699;48.220;16.358;2023-07-13T07:41:12;1.23;;;1.23;;
79261;SDS011;68699;48.220;16.358;2023-07-13T07:43:38;1.67;;;1.33;;
79261;SDS011;68699;48.220;16.358;2023-07-13T07:46:04;1.90;;;1.40;;
79261;SDS011;68699;48.220;16.358;2023-07-13T07:48:30;1.50;;;1.40;;
79261;SDS011;68699;48.220;16.358;2023-07-13T07:50:56;1.97;;;1.30;;
79261;SDS011;68699;48.220;16.358;2023-07-13T07:53:22;1.40;;;1.30;;
79261;SDS011;68699;48.220;16.358;2023-07-13T07:55:48;1.73;;;1.10;;
79261;SDS011;68699;48.220;16.358;2023-07-13T07:58:14;1.40;;;1.30;;
79261;SDS011;68699;48.220;16.358;2023-07-13T08:00:40;1.23;;;1.13;;
79261;SDS011;68699;48.220;16.358;2023-07-13T08:03:06;2.50;;;1.30;;
79261;SDS011;68699;48.220;16.358;2023-07-13T08:05:34;1.30;;;1.20;;
79261;SDS011;68699;48.220;16.358;2023-07-13T08:08:01;1.40;;;1.23;;
79261;SDS011;68699;48.220;16.358;2023-07-13T08:10:27;1.77;;;1.30;;
79261;SDS011;68699;48.220;16.358;2023-07-13T08:12:53;1.83;;;1.40;;
79261;SDS011;68699;48.220;16.358;2023-07-13T08:15:19;1.83;;;1.30;;
79261;SDS011;68699;48.220;16.358;2023-07-13T08:17:46;3.33;;;1.40;;
79261;SDS011;68699;48.220;16.358;2023-07-13T08:20:12;3.27;;;1.40;;
79261;SDS011;68699;48.220;16.358;2023-07-13T08:22:39;1.73;;;1.60;;
79261;SDS011;68699;48.220;16.358;2023-07-13T08:25:05;2.50;;;1.30;;
79261;SDS011;68699;48.220;16.358;2023-07-13T08:27:31;1.58;;;1.48;;
79261;SDS011;68699;48.220;16.358;2023-07-13T08:29:57;1.58;;;1.48;;
79261;SDS011;68699;48.220;16.358;2023-07-13T08:32:23;2.15;;;1.63;;
79261;SDS011;68699;48.220;16.358;2023-07-13T08:34:49;1.80;;;1.40;;
79261;SDS011;68699;48.220;16.358;2023-07-13T08:37:16;3.50;;;1.80;;
79261;SDS011;68699;48.220;16.358;2023-07-13T08:39:42;2.30;;;1.50;;
79261;SDS011;68699;48.220;16.358;2023-07-13T08:42:13;2.72;;;1.77;;
79261;SDS011;68699;48.220;16.358;2023-07-13T08:44:56;1.83;;;1.70;;
79261;SDS011;68699;48.220;16.358;2023-07-13T08:47:23;1.80;;;1.70;;
79261;SDS011;68699;48.220;16.358;2023-07-13T08:49:49;2.22;;;2.00;;
79261;SDS011;68699;48.220;16.358;2023-07-13T08:54:51;2.30;;;1.90;;
79261;SDS011;68699;48.220;16.358;2023-07-13T08:57:19;3.58;;;1.92;;
79261;SDS011;68699;48.220;16.358;2023-07-13T08:59:46;4.25;;;2.17;;
79261;SDS011;68699;48.220;16.358;2023-07-13T09:04:49;2.35;;;2.15;;
79261;SDS011;68699;48.220;16.358;2023-07-13T09:08:00;2.67;;;1.90;;
79261;SDS011;68699;48.220;16.358;2023-07-13T09:15:29;3.30;;;2.45;;
79261;SDS011;68699;48.220;16.358;2023-07-13T09:20:57;3.00;;;2.70;;
79261;SDS011;68699;48.220;16.358;2023-07-13T09:23:26;2.70;;;2.50;;
79261;SDS011;68699;48.220;16.358;2023-07-13T09:25:55;2.85;;;2.50;;
79261;SDS011;68699;48.220;16.358;2023-07-13T09:28:26;2.78;;;2.58;;
79261;SDS011;68699;48.220;16.358;2023-07-13T09:33:24;3.55;;;2.85;;
79261;SDS011;68699;48.220;16.358;2023-07-13T09:35:54;2.97;;;2.78;;
79261;SDS011;68699;48.220;16.358;2023-07-13T09:38:21;3.15;;;2.95;;
79261;SDS011;68699;48.220;16.358;2023-07-13T09:41:14;4.35;;;2.88;;
79261;SDS011;68699;48.220;16.358;2023-07-13T09:46:26;5.30;;;3.20;;
79261;SDS011;68699;48.220;16.358;2023-07-13T09:48:52;4.05;;;2.83;;
79261;SDS011;68699;48.220;16.358;2023-07-13T09:51:18;3.25;;;2.92;;
79261;SDS011;68699;48.220;16.358;2023-07-13T09:53:44;4.97;;;3.22;;
79261;SDS011;68699;48.220;16.358;2023-07-13T09:56:20;3.45;;;3.15;;
79261;SDS011;68699;48.220;16.358;2023-07-13T09:58:47;3.15;;;2.88;;
79261;SDS011;68699;48.220;16.358;2023-07-13T10:01:13;3.67;;;3.17;;
79261;SDS011;68699;48.220;16.358;2023-07-13T10:03:42;3.65;;;3.35;;
79261;SDS011;68699;48.220;16.358;2023-07-13T10:06:17;3.33;;;3.10;;
79261;SDS011;68699;48.220;16.358;2023-07-13T10:08:44;3.75;;;3.38;;
79261;SDS011;68699;48.220;16.358;2023-07-13T10:13:44;3.40;;;3.10;;
79261;SDS011;68699;48.220;16.358;2023-07-13T10:16:11;3.92;;;3.08;;
79261;SDS011;68699;48.220;16.358;2023-07-13T10:18:48;3.97;;;3.38;;
79261;SDS011;68699;48.220;16.358;2023-07-13T10:21:20;3.38;;;3.08;;
79261;SDS011;68699;48.220;16.358;2023-07-13T10:23:57;3.35;;;3.15;;
79261;SDS011;68699;48.220;16.358;2023-07-13T10:26:26;3.50;;;3.20;;
79261;SDS011;68699;48.220;16.358;2023-07-13T10:28:54;3.65;;;3.35;;
79261;SDS011;68699;48.220;16.358;2023-07-13T10:31:22;3.38;;;3.08;;
79261;SDS011;68699;48.220;16.358;2023-07-13T10:33:48;3.72;;;3.42;;
79261;SDS011;68699;48.220;16.358;2023-07-13T10:36:17;3.45;;;3.20;;
79261;SDS011;68699;48.220;16.358;2023-07-13T10:38:46;3.72;;;3.42;;
79261;SDS011;68699;48.220;16.358;2023-07-13T10:41:16;3.65;;;3.33;;
79261;SDS011;68699;48.220;16.358;2023-07-13T10:43:52;3.30;;;3.10;;
79261;SDS011;68699;48.220;16.358;2023-07-13T10:46:20;4.15;;;3.10;;
79261;SDS011;68699;48.220;16.358;2023-07-13T10:48:49;4.47;;;3.80;;
79261;SDS011;68699;48.220;16.358;2023-07-13T10:51:17;5.03;;;3.50;;
79261;SDS011;68699;48.220;16.358;2023-07-13T10:53:46;7.00;;;3.42;;
79261;SDS011;68699;48.220;16.358;2023-07-13T10:56:28;3.25;;;3.03;;
79261;SDS011;68699;48.220;16.358;2023-07-13T11:01:41;6.32;;;3.40;;
79261;SDS011;68699;48.220;16.358;2023-07-13T11:04:12;3.75;;;3.45;;
79261;SDS011;68699;48.220;16.358;2023-07-13T11:06:40;4.45;;;3.33;;
79261;SDS011;68699;48.220;16.358;2023-07-13T11:11:56;3.20;;;2.92;;
79261;SDS011;68699;48.220;16.358;2023-07-13T11:16:51;3.08;;;2.80;;
79261;SDS011;68699;48.220;16.358;2023-07-13T11:27:22;3.05;;;2.60;;
79261;SDS011;68699;48.220;16.358;2023-07-13T11:29:48;3.00;;;2.60;;
79261;SDS011;68699;48.220;16.358;2023-07-13T11:32:25;3.20;;;3.00;;
79261;SDS011;68699;48.220;16.358;2023-07-13T11:34:52;3.42;;;3.13;;
79261;SDS011;68699;48.220;16.358;2023-07-13T11:37:19;2.90;;;2.70;;
79261;SDS011;68699;48.220;16.358;2023-07-13T11:39:46;3.38;;;2.85;;
79261;SDS011;68699;48.220;16.358;2023-07-13T11:42:13;2.92;;;2.72;;
79261;SDS011;68699;48.220;16.358;2023-07-13T11:44:42;3.03;;;2.83;;
79261;SDS011;68699;48.220;16.358;2023-07-13T11:47:09;3.65;;;3.35;;
79261;SDS011;68699;48.220;16.358;2023-07-13T11:49:45;3.38;;;3.08;;
79261;SDS011;68699;48.220;16.358;2023-07-13T11:52:15;3.10;;;2.60;;
79261;SDS011;68699;48.220;16.358;2023-07-13T11:54:49;2.90;;;2.70;;
79261;SDS011;68699;48.220;16.358;2023-07-13T11:59:42;3.08;;;2.40;;
79261;SDS011;68699;48.220;16.358;2023-07-13T12:02:14;2.95;;;2.75;;
79261;SDS011;68699;48.220;16.358;2023-07-13T12:04:41;2.80;;;2.60;;
79261;SDS011;68699;48.220;16.358;2023-07-13T12:07:14;2.85;;;2.58;;
79261;SDS011;68699;48.220;16.358;2023-07-13T12:09:40;2.63;;;2.42;;
79261;SDS011;68699;48.220;16.358;2023-07-13T12:12:13;2.78;;;2.58;;
79261;SDS011;68699;48.220;16.358;2023-07-13T12:14:39;2.53;;;2.38;;
79261;SDS011;68699;48.220;16.358;2023-07-13T12:17:19;2.50;;;2.40;;
79261;SDS011;68699;48.220;16.358;2023-07-13T12:19:45;3.65;;;2.45;;
79261;SDS011;68699;48.220;16.358;2023-07-13T12:22:13;3.08;;;2.75;;
79261;SDS011;68699;48.220;16.358;2023-07-13T12:24:40;2.70;;;2.53;;
79261;SDS011;68699;48.220;16.358;2023-07-13T12:27:14;3.47;;;2.55;;
79261;SDS011;68699;48.220;16.358;2023-07-13T12:29:48;3.03;;;2.83;;
79261;SDS011;68699;48.220;16.358;2023-07-13T12:32:17;4.20;;;2.60;;
79261;SDS011;68699;48.220;16.358;2023-07-13T12:34:56;2.78;;;2.58;;
79261;SDS011;68699;48.220;16.358;2023-07-13T12:37:23;2.75;;;2.55;;
79261;SDS011;68699;48.220;16.358;2023-07-13T12:39:50;3.03;;;2.70;;
79261;SDS011;68699;48.220;16.358;2023-07-13T12:44:45;2.80;;;2.60;;
79261;SDS011;68699;48.220;16.358;2023-07-13T12:47:12;4.40;;;2.70;;
79261;SDS011;68699;48.220;16.358;2023-07-13T12:49:43;2.55;;;2.35;;
79261;SDS011;68699;48.220;16.358;2023-07-13T12:52:21;2.80;;;2.55;;
79261;SDS011;68699;48.220;16.358;2023-07-13T12:54:57;2.90;;;2.67;;
79261;SDS011;68699;48.220;16.358;2023-07-13T12:57:24;3.85;;;2.80;;
79261;SDS011;68699;48.220;16.358;2023-07-13T12:59:54;3.22;;;2.60;;
79261;SDS011;68699;48.220;16.358;2023-07-13T13:02:29;3.53;;;2.80;;
79261;SDS011;68699;48.220;16.358;2023-07-13T13:04:56;3.63;;;2.88;;
79261;SDS011;68699;48.220;16.358;2023-07-13T13:07:23;3.00;;;2.70;;
79261;SDS011;68699;48.220;16.358;2023-07-13T13:09:49;2.60;;;2.40;;
79261;SDS011;68699;48.220;16.358;2023-07-13T13:12:15;3.25;;;2.90;;
79261;SDS011;68699;48.220;16.358;2023-07-13T13:14:42;2.80;;;2.60;;
79261;SDS011;68699;48.220;16.358;2023-07-13T13:17:41;2.70;;;2.50;;
79261;SDS011;68699;48.220;16.358;2023-07-13T13:20:00;2.70;;;2.50;;
79261;SDS011;68699;48.220;16.358;2023-07-13T13:22:27;2.92;;;2.72;;
79261;SDS011;68699;48.220;16.358;2023-07-13T13:24:53;3.40;;;2.70;;
79261;SDS011;68699;48.220;16.358;2023-07-13T13:27:21;3.13;;;2.90;;
79261;SDS011;68699;48.220;16.358;2023-07-13T13:29:51;2.63;;;2.40;;
79261;SDS011;68699;48.220;16.358;2023-07-13T13:32:18;4.30;;;2.67;;
79261;SDS011;68699;48.220;16.358;2023-07-13T13:34:44;3.40;;;2.90;;
79261;SDS011;68699;48.220;16.358;2023-07-13T13:39:43;2.90;;;2.70;;
79261;SDS011;68699;48.220;16.358;2023-07-13T13:42:10;2.85;;;2.65;;
79261;SDS011;68699;48.220;16.358;2023-07-13T13:44:36;5.30;;;2.75;;
79261;SDS011;68699;48.220;16.358;2023-07-13T13:47:02;3.30;;;2.97;;
79261;SDS011;68699;48.220;16.358;2023-07-13T13:49:29;2.78;;;2.50;;
79261;SDS011;68699;48.220;16.358;2023-07-13T13:51:56;2.97;;;2.60;;
79261;SDS011;68699;48.220;16.358;2023-07-13T13:54:23;2.90;;;2.70;;
79261;SDS011;68699;48.220;16.358;2023-07-13T13:56:51;4.63;;;2.75;;
79261;SDS011;68699;48.220;16.358;2023-07-13T13:59:17;3.47;;;2.50;;
79261;SDS011;68699;48.220;16.358;2023-07-13T14:01:44;3.90;;;2.70;;
79261;SDS011;68699;48.220;16.358;2023-07-13T14:04:14;2.97;;;2.47;;
79261;SDS011;68699;48.220;16.358;2023-07-13T14:06:40;3.00;;;2.58;;
79261;SDS011;68699;48.220;16.358;2023-07-13T14:09:08;3.88;;;2.78;;
79261;SDS011;68699;48.220;16.358;2023-07-13T14:11:36;4.95;;;2.30;;
79261;SDS011;68699;48.220;16.358;2023-07-13T14:14:02;3.10;;;2.58;;
79261;SDS011;68699;48.220;16.358;2023-07-13T14:16:30;2.67;;;2.47;;
79261;SDS011;68699;48.220;16.358;2023-07-13T14:18:59;3.03;;;2.65;;
79261;SDS011;68699;48.220;16.358;2023-07-13T14:21:27;2.70;;;2.47;;
79261;SDS011;68699;48.220;16.358;2023-07-13T14:23:53;3.05;;;2.45;;
79261;SDS011;68699;48.220;16.358;2023-07-13T14:26:21;2.30;;;2.20;;
79261;SDS011;68699;48.220;16.358;2023-07-13T14:28:49;2.85;;;2.30;;
79261;SDS011;68699;48.220;16.358;2023-07-13T14:31:16;3.85;;;2.50;;
79261;SDS011;68699;48.220;16.358;2023-07-13T14:33:42;3.28;;;2.72;;
79261;SDS011;68699;48.220;16.358;2023-07-13T14:38:43;4.13;;;2.65;;
79261;SDS011;68699;48.220;16.358;2023-07-13T14:41:10;3.72;;;2.65;;
79261;SDS011;68699;48.220;16.358;2023-07-13T14:43:36;3.40;;;2.60;;
79261;SDS011;68699;48.220;16.358;2023-07-13T14:46:02;4.90;;;2.55;;
79261;SDS011;68699;48.220;16.358;2023-07-13T14:48:29;2.95;;;2.35;;
79261;SDS011;68699;48.220;16.358;2023-07-13T14:50:56;2.88;;;2.67;;
79261;SDS011;68699;48.220;16.358;2023-07-13T14:53:22;3.55;;;2.90;;
79261;SDS011;68699;48.220;16.358;2023-07-13T14:55:49;2.78;;;2.58;;
79261;SDS011;68699;48.220;16.358;2023-07-13T14:58:15;3.88;;;2.88;;
79261;SDS011;68699;48.220;16.358;2023-07-13T15:00:41;2.63;;;2.42;;
79261;SDS011;68699;48.220;16.358;2023-07-13T15:03:15;2.97;;;2.75;;
79261;SDS011;68699;48.220;16.358;2023-07-13T15:05:44;2.75;;;2.50;;
79261;SDS011;68699;48.220;16.358;2023-07-13T15:08:11;3.17;;;2.60;;
79261;SDS011;68699;48.220;16.358;2023-07-13T15:10:37;2.70;;;2.50;;
79261;SDS011;68699;48.220;16.358;2023-07-13T15:13:17;2.72;;;2.53;;
79261;SDS011;68699;48.220;16.358;2023-07-13T15:15:47;2.42;;;2.22;;
79261;SDS011;68699;48.220;16.358;2023-07-13T15:18:15;3.40;;;2.45;;
79261;SDS011;68699;48.220;16.358;2023-07-13T15:20:42;2.65;;;2.47;;
79261;SDS011;68699;48.220;16.358;2023-07-13T15:23:13;2.75;;;2.42;;
79261;SDS011;68699;48.220;16.358;2023-07-13T15:25:39;3.45;;;2.60;;
79261;SDS011;68699;48.220;16.358;2023-07-13T15:28:05;3.63;;;2.88;;